createdAt,value
2019-04-03T00:01:14.908Z,49.23
2019-04-03T00:03:45.605Z,49.26
2019-04-03T00:06:18.465Z,49.15
2019-04-03T00:08:51.457Z,49.05
2019-04-03T00:11:24.414Z,49.20
2019-04-03T00:13:57.534Z,49.61
2019-04-03T00:16:30.486Z,49.74
2019-04-03T00:19:03.507Z,49.51
2019-04-03T00:21:33.848Z,49.32
2019-04-03T00:24:05.815Z,49.27
2019-04-03T00:26:36.603Z,49.70
2019-04-03T00:29:08.672Z,49.93
2019-04-03T00:31:39.733Z,50.45
2019-04-03T00:34:12.618Z,50.62
2019-04-03T00:36:45.698Z,50.99
2019-04-03T00:39:18.754Z,51.28
2019-04-03T00:41:49.702Z,51.19
2019-04-03T00:44:24.125Z,51.51
2019-04-03T00:46:55.597Z,51.80
2019-04-03T00:49:26.735Z,51.62
2019-04-03T00:51:59.101Z,51.63
2019-04-03T00:54:31.335Z,51.82
2019-04-03T00:57:03.648Z,52.20
2019-04-03T00:59:38.285Z,52.09
2019-04-03T01:02:11.360Z,51.79
2019-04-03T01:04:42.755Z,52.21
2019-04-03T01:07:15.802Z,51.94
2019-04-03T01:09:48.725Z,52.14
2019-04-03T01:12:21.925Z,52.68
2019-04-03T01:14:54.788Z,52.73
2019-04-03T01:17:27.790Z,52.98
2019-04-03T01:20:00.888Z,53.07
2019-04-03T01:22:31.795Z,53.02
2019-04-03T01:25:05.220Z,53.18
2019-04-03T01:27:36.948Z,53.21
2019-04-03T01:30:09.924Z,52.76
2019-04-03T01:32:42.867Z,52.95
2019-04-03T01:35:17.423Z,52.67
2019-04-03T01:37:49.918Z,52.59
2019-04-03T01:40:21.875Z,52.75
2019-04-03T01:42:54.856Z,52.45
2019-04-03T01:45:28.041Z,52.71
2019-04-03T01:47:58.883Z,53.10
2019-04-03T01:50:30.963Z,52.86
2019-04-03T01:53:03.942Z,52.79
2019-04-03T01:55:36.949Z,53.06
2019-04-03T01:58:08.085Z,52.84
2019-04-03T02:00:39.046Z,52.93
2019-04-03T02:03:10.817Z,52.68
2019-04-03T02:05:43.982Z,52.62
2019-04-03T02:08:16.050Z,52.23
2019-04-03T02:10:49.290Z,52.38
2019-04-03T02:13:21.868Z,52.16
2019-04-03T02:15:53.983Z,51.89
2019-04-03T02:18:27.257Z,52.26
2019-04-03T02:20:58.176Z,52.43
2019-04-03T02:23:31.274Z,52.90
2019-04-03T02:26:04.107Z,53.53
2019-04-03T02:28:36.416Z,53.84
2019-04-03T02:31:07.185Z,53.97
2019-04-03T02:33:39.054Z,54.07
2019-04-03T02:36:12.496Z,54.45
2019-04-03T02:38:42.332Z,54.86
2019-04-03T02:41:15.328Z,55.25
2019-04-03T02:43:48.401Z,55.53
2019-04-03T02:46:19.274Z,55.73
2019-04-03T02:48:51.392Z,55.81
2019-04-03T02:51:21.793Z,55.42
2019-04-03T02:53:54.278Z,54.95
2019-04-03T02:56:27.319Z,54.88
2019-04-03T02:59:00.317Z,54.23
2019-04-03T03:01:31.279Z,54.03
2019-04-03T03:04:03.370Z,54.21
2019-04-03T03:06:33.796Z,54.69
2019-04-03T03:09:05.316Z,54.98
2019-04-03T03:11:36.364Z,55.19
2019-04-03T03:14:09.624Z,55.93
2019-04-03T03:16:42.743Z,56.02
2019-04-03T03:19:15.102Z,56.13
2019-04-03T03:21:46.227Z,55.99
2019-04-03T03:24:19.826Z,55.52
2019-04-03T03:26:51.425Z,55.71
2019-04-03T03:29:27.003Z,55.66
2019-04-03T03:32:08.526Z,56.02
2019-04-03T03:34:49.504Z,56.25
2019-04-03T03:37:05.776Z,56.37
2019-04-03T03:39:36.368Z,56.31
2019-04-03T03:42:09.528Z,56.49
2019-04-03T03:44:45.631Z,56.43
2019-04-03T03:47:17.674Z,56.84
2019-04-03T03:49:50.873Z,57.19
2019-04-03T03:52:21.672Z,57.33
2019-04-03T03:54:54.798Z,57.58
2019-04-03T03:57:25.689Z,58.23
2019-04-03T03:59:57.916Z,58.77
2019-04-03T04:02:29.674Z,58.98
2019-04-03T04:05:00.717Z,59.52
2019-04-03T04:07:35.734Z,59.68
2019-04-03T04:10:06.407Z,60.04
2019-04-03T04:12:41.278Z,60.19
2019-04-03T04:15:11.908Z,59.38
2019-04-03T04:17:43.800Z,59.42
2019-04-03T04:20:14.657Z,59.28
2019-04-03T04:22:50.453Z,59.32
2019-04-03T04:25:19.693Z,59.33
2019-04-03T04:27:52.149Z,59.46
2019-04-03T04:30:24.726Z,59.58
2019-04-03T04:32:57.786Z,59.96
2019-04-03T04:35:30.640Z,59.83
2019-04-03T04:38:03.984Z,59.88
2019-04-03T04:40:36.272Z,59.87
2019-04-03T04:43:08.213Z,59.61
2019-04-03T04:45:42.193Z,59.38
2019-04-03T04:48:15.616Z,59.26
2019-04-03T04:50:45.754Z,59.52
2019-04-03T04:53:16.793Z,59.49
2019-04-03T04:55:50.494Z,59.52
2019-04-03T04:58:21.910Z,59.61
2019-04-03T05:00:54.837Z,59.63
2019-04-03T05:03:26.870Z,59.70
2019-04-03T05:05:58.601Z,59.74
2019-04-03T05:08:32.943Z,59.69
2019-04-03T05:11:03.844Z,59.51
2019-04-03T05:13:34.211Z,59.16
2019-04-03T05:16:06.979Z,58.73
2019-04-03T05:18:39.857Z,58.47
2019-04-03T05:21:12.088Z,58.05
2019-04-03T05:23:42.997Z,58.27
2019-04-03T05:26:15.935Z,58.35
2019-04-03T05:28:55.626Z,58.40
2019-04-03T05:31:19.143Z,57.99
2019-04-03T05:33:52.074Z,57.82
2019-04-03T05:36:25.013Z,57.53
2019-04-03T05:38:56.274Z,57.22
2019-04-03T05:41:28.697Z,56.96
2019-04-03T05:44:02.360Z,56.69
2019-04-03T05:46:33.462Z,56.72
2019-04-03T05:49:04.060Z,56.51
2019-04-03T05:51:38.720Z,56.13
2019-04-03T05:54:09.994Z,55.59
2019-04-03T05:56:42.982Z,55.26
2019-04-03T05:59:14.053Z,54.82
2019-04-03T06:01:46.939Z,54.54
2019-04-03T06:04:19.481Z,54.11
2019-04-03T06:06:52.365Z,53.91
2019-04-03T06:09:25.179Z,53.71
2019-04-03T06:11:57.334Z,53.56
2019-04-03T06:14:28.182Z,53.36
2019-04-03T06:16:59.284Z,52.84
2019-04-03T06:19:32.554Z,52.46
2019-04-03T06:22:04.186Z,51.98
2019-04-03T06:24:37.285Z,51.95
2019-04-03T06:27:10.595Z,51.97
2019-04-03T06:29:43.151Z,51.73
2019-04-03T06:32:14.260Z,51.30
2019-04-03T06:34:47.168Z,50.30
2019-04-03T06:37:22.273Z,49.75
2019-04-03T06:39:55.296Z,48.98
2019-04-03T06:42:31.559Z,48.37
2019-04-03T06:45:06.945Z,47.68
2019-04-03T06:47:37.331Z,47.46
2019-04-03T06:50:12.563Z,47.35
2019-04-03T06:52:43.267Z,46.85
2019-04-03T06:55:16.361Z,46.46
2019-04-03T06:57:47.552Z,46.20
2019-04-03T07:00:19.327Z,45.67
2019-04-03T07:02:50.386Z,45.39
2019-04-03T07:05:22.360Z,45.28
2019-04-03T07:07:55.370Z,45.41
2019-04-03T07:10:28.531Z,45.26
2019-04-03T07:13:00.349Z,45.31
2019-04-03T07:15:31.544Z,45.27
2019-04-03T07:18:05.861Z,44.80
2019-04-03T07:20:37.504Z,44.90
2019-04-03T07:23:09.444Z,44.38
2019-04-03T07:25:39.936Z,44.13
2019-04-03T07:28:10.323Z,44.22
2019-04-03T07:30:42.605Z,44.06
2019-04-03T07:33:14.481Z,43.75
2019-04-03T07:35:45.706Z,44.22
2019-04-03T07:38:16.464Z,43.87
2019-04-03T07:40:50.949Z,43.96
2019-04-03T07:43:21.576Z,43.84
2019-04-03T07:45:55.994Z,43.28
2019-04-03T07:48:28.629Z,43.13
2019-04-03T07:50:59.777Z,43.05
2019-04-03T07:53:31.524Z,43.01
2019-04-03T07:56:04.579Z,43.19
2019-04-03T07:58:36.767Z,43.25
2019-04-03T08:01:09.568Z,43.21
2019-04-03T08:03:39.958Z,43.15
2019-04-03T08:06:12.720Z,42.75
2019-04-03T08:08:45.620Z,42.76
2019-04-03T08:11:16.663Z,42.03
2019-04-03T08:13:48.654Z,41.79
2019-04-03T08:16:21.778Z,41.74
2019-04-03T08:18:53.772Z,41.24
2019-04-03T08:21:25.139Z,40.79
2019-04-03T08:23:57.748Z,40.60
2019-04-03T08:26:31.436Z,40.56
2019-04-03T08:29:03.677Z,40.27
2019-04-03T08:31:34.295Z,39.95
2019-04-03T08:34:15.845Z,39.64
2019-04-03T08:36:39.934Z,39.79
2019-04-03T08:39:10.777Z,40.14
2019-04-03T08:41:43.143Z,39.88
2019-04-03T08:44:18.139Z,39.98
2019-04-03T08:46:51.010Z,39.80
2019-04-03T08:49:25.685Z,40.03
2019-04-03T08:51:57.758Z,40.02
2019-04-03T08:54:30.882Z,39.98
2019-04-03T08:57:03.888Z,39.75
2019-04-03T08:59:34.266Z,39.70
2019-04-03T09:02:08.216Z,39.33
2019-04-03T09:04:41.447Z,39.10
2019-04-03T09:07:12.846Z,38.78
2019-04-03T09:09:45.983Z,38.83
2019-04-03T09:12:18.983Z,38.61
2019-04-03T09:14:52.040Z,38.84
2019-04-03T09:17:24.975Z,38.19
2019-04-03T09:19:58.352Z,37.62
2019-04-03T09:22:28.984Z,37.86
2019-04-03T09:25:01.117Z,37.58
2019-04-03T09:27:34.148Z,37.87
2019-04-03T09:30:07.490Z,37.58
2019-04-03T09:32:40.037Z,37.41
2019-04-03T09:35:13.689Z,37.89
2019-04-03T09:37:46.708Z,37.81
2019-04-03T09:40:19.205Z,38.01
2019-04-03T09:42:52.081Z,37.74
2019-04-03T09:45:26.077Z,37.63
2019-04-03T09:47:58.248Z,37.72
2019-04-03T09:50:30.206Z,37.48
2019-04-03T09:53:02.474Z,37.32
2019-04-03T09:55:36.946Z,37.51
2019-04-03T09:58:06.134Z,37.56
2019-04-03T10:00:37.141Z,37.37
2019-04-03T10:03:10.763Z,36.88
2019-04-03T10:05:43.209Z,36.71
2019-04-03T10:08:15.096Z,36.93
2019-04-03T10:10:47.138Z,36.62
2019-04-03T10:13:19.221Z,36.88
2019-04-03T10:15:50.458Z,37.18
2019-04-03T10:18:22.569Z,37.52
2019-04-03T10:20:55.332Z,37.35
2019-04-03T10:23:29.162Z,36.82
2019-04-03T10:26:01.282Z,37.11
2019-04-03T10:28:33.359Z,36.98
2019-04-03T10:31:04.212Z,36.48
2019-04-03T10:33:34.589Z,36.96
2019-04-03T10:36:05.820Z,36.38
2019-04-03T10:38:37.352Z,36.43
2019-04-03T10:41:11.109Z,36.70
2019-04-03T10:43:42.149Z,36.82
2019-04-03T10:46:13.454Z,36.51
2019-04-03T10:48:46.396Z,36.27
2019-04-03T10:51:19.374Z,36.21
2019-04-03T10:53:52.481Z,35.77
2019-04-03T10:56:23.544Z,35.43
2019-04-03T10:59:09.158Z,35.25
2019-04-03T11:01:29.890Z,34.53
2019-04-03T11:04:01.533Z,34.12
2019-04-03T11:06:36.551Z,34.31
2019-04-03T11:09:10.382Z,33.99
2019-04-03T11:11:44.126Z,34.28
2019-04-03T11:14:16.467Z,33.97
2019-04-03T11:16:49.528Z,33.89
2019-04-03T11:19:22.546Z,33.86
2019-04-03T11:21:56.019Z,33.71
2019-04-03T11:24:29.258Z,34.00
2019-04-03T11:27:02.563Z,33.46
2019-04-03T11:29:33.793Z,33.31
2019-04-03T11:32:04.528Z,33.38
2019-04-03T11:34:37.917Z,33.06
2019-04-03T11:37:09.595Z,32.93
2019-04-03T11:39:40.798Z,33.02
2019-04-03T11:42:23.192Z,33.40
2019-04-03T11:44:46.925Z,33.78
2019-04-03T11:47:18.973Z,34.03
2019-04-03T11:49:51.878Z,33.58
2019-04-03T11:52:21.788Z,33.56
2019-04-03T11:54:54.851Z,33.53
2019-04-03T11:57:27.193Z,33.51
2019-04-03T11:59:59.044Z,33.35
2019-04-03T12:02:31.567Z,33.53
2019-04-03T12:05:03.754Z,33.63
2019-04-03T12:07:34.181Z,33.35
2019-04-03T12:10:06.063Z,33.32
2019-04-03T12:12:37.671Z,33.29
2019-04-03T12:15:10.068Z,32.87
2019-04-03T12:17:40.999Z,32.71
2019-04-03T12:20:15.903Z,32.67
2019-04-03T12:22:46.656Z,32.88
2019-04-03T12:25:19.838Z,32.47
2019-04-03T12:27:52.854Z,32.57
2019-04-03T12:30:26.663Z,32.24
2019-04-03T12:32:58.906Z,31.97
2019-04-03T12:35:31.978Z,31.93
2019-04-03T12:38:03.755Z,31.94
2019-04-03T12:40:34.147Z,32.39
2019-04-03T12:43:05.383Z,31.84
2019-04-03T12:45:36.853Z,31.27
2019-04-03T12:48:09.050Z,31.39
2019-04-03T12:50:40.194Z,31.21
2019-04-03T12:53:10.835Z,31.66
2019-04-03T12:55:43.044Z,31.60
2019-04-03T12:58:14.917Z,32.08
2019-04-03T13:00:46.602Z,32.08
2019-04-03T13:03:19.454Z,32.27
2019-04-03T13:05:51.999Z,32.30
2019-04-03T13:08:23.448Z,32.61
2019-04-03T13:10:54.980Z,32.53
2019-04-03T13:13:28.902Z,32.48
2019-04-03T13:16:00.972Z,32.70
2019-04-03T13:18:32.139Z,33.02
2019-04-03T13:21:04.368Z,32.42
2019-04-03T13:23:34.963Z,32.44
2019-04-03T13:26:07.405Z,32.04
2019-04-03T13:28:40.947Z,31.51
2019-04-03T13:31:15.043Z,30.97
2019-04-03T13:33:49.111Z,31.21
2019-04-03T13:36:24.342Z,31.46
2019-04-03T13:38:55.462Z,31.40
2019-04-03T13:41:28.064Z,31.60
2019-04-03T13:44:01.140Z,31.50
2019-04-03T13:46:34.466Z,31.56
2019-04-03T13:49:07.154Z,31.41
2019-04-03T13:51:40.580Z,31.24
2019-04-03T13:54:12.122Z,31.65
2019-04-03T13:56:43.453Z,31.78
2019-04-03T13:59:16.255Z,31.75
2019-04-03T14:01:49.243Z,31.92
2019-04-03T14:04:23.252Z,31.72
2019-04-03T14:06:55.333Z,31.73
2019-04-03T14:09:28.271Z,31.86
2019-04-03T14:12:04.910Z,31.78
2019-04-03T14:14:33.983Z,31.72
2019-04-03T14:17:07.243Z,31.58
2019-04-03T14:19:45.154Z,31.38
2019-04-03T14:22:13.381Z,31.29
2019-04-03T14:24:51.162Z,31.18
2019-04-03T14:27:23.886Z,31.26
2019-04-03T14:29:52.373Z,31.36
2019-04-03T14:32:25.373Z,31.37
2019-04-03T14:35:09.092Z,31.12
2019-04-03T14:37:33.082Z,31.16
2019-04-03T14:40:04.635Z,31.07
2019-04-03T14:42:35.092Z,30.93
2019-04-03T14:45:08.068Z,31.04
2019-04-03T14:47:40.739Z,31.24
2019-04-03T14:50:13.926Z,30.98
2019-04-03T14:52:47.645Z,30.95
2019-04-03T14:55:20.721Z,31.25
2019-04-03T14:57:49.622Z,31.90
2019-04-03T15:00:27.977Z,31.99
2019-04-03T15:02:56.969Z,31.63
2019-04-03T15:05:29.713Z,31.61
2019-04-03T15:08:00.875Z,31.71
2019-04-03T15:10:32.247Z,32.06
2019-04-03T15:13:04.609Z,32.03
2019-04-03T15:15:34.998Z,31.28
2019-04-03T15:18:09.338Z,30.81
2019-04-03T15:20:40.595Z,30.66
2019-04-03T15:23:12.084Z,31.26
2019-04-03T15:25:43.713Z,31.50
2019-04-03T15:28:15.183Z,31.32
2019-04-03T15:30:47.932Z,31.31
2019-04-03T15:33:23.025Z,30.61
2019-04-03T15:35:55.635Z,29.92
2019-04-03T15:38:31.326Z,29.36
2019-04-03T15:41:01.682Z,28.97
2019-04-03T15:43:32.570Z,29.15
2019-04-03T15:46:04.279Z,29.02
2019-04-03T15:48:34.697Z,28.45
2019-04-03T15:51:07.908Z,27.22
2019-04-03T15:53:40.708Z,26.27
2019-04-03T15:56:13.045Z,24.94
2019-04-03T15:58:44.877Z,24.07
2019-04-03T16:01:17.195Z,23.94
2019-04-03T16:03:50.562Z,23.20
2019-04-03T16:06:22.761Z,22.97
2019-04-03T16:08:55.757Z,22.93
2019-04-03T16:11:30.247Z,22.56
2019-04-03T16:14:01.776Z,22.73
2019-04-03T16:16:34.151Z,22.44
2019-04-03T16:19:04.963Z,22.33
2019-04-03T16:21:38.302Z,22.28
2019-04-03T16:24:13.073Z,22.76
2019-04-03T16:26:43.917Z,22.76
2019-04-03T16:29:15.913Z,23.11
2019-04-03T16:31:47.158Z,23.32
2019-04-03T16:34:19.981Z,23.18
2019-04-03T16:36:53.060Z,23.57
2019-04-03T16:39:26.023Z,24.05
2019-04-03T16:41:57.319Z,24.32
2019-04-03T16:44:29.961Z,24.76
2019-04-03T16:47:00.966Z,25.33
2019-04-03T16:49:32.564Z,25.85
2019-04-03T16:52:05.766Z,26.63
2019-04-03T16:54:39.379Z,27.18
2019-04-03T16:57:11.873Z,27.53
2019-04-03T16:59:42.946Z,28.08
2019-04-03T17:02:16.119Z,28.73
2019-04-03T17:04:47.152Z,29.75
2019-04-03T17:07:21.029Z,30.31
2019-04-03T17:09:54.093Z,31.17
2019-04-03T17:12:25.772Z,32.35
2019-04-03T17:14:59.776Z,33.25
2019-04-03T17:17:32.780Z,33.96
2019-04-03T17:20:05.611Z,35.00
2019-04-03T17:22:40.901Z,35.79
2019-04-03T17:25:12.876Z,36.09
2019-04-03T17:27:54.091Z,36.23
2019-04-03T17:30:18.307Z,36.30
2019-04-03T17:32:50.586Z,36.58
2019-04-03T17:35:21.422Z,36.77
2019-04-03T17:37:54.151Z,37.21
2019-04-03T17:40:25.112Z,37.51
2019-04-03T17:42:56.164Z,38.17
2019-04-03T17:45:29.103Z,38.64
2019-04-03T17:48:00.302Z,39.05
2019-04-03T17:50:31.328Z,39.61
2019-04-03T17:53:06.303Z,39.85
2019-04-03T17:55:38.191Z,40.24
2019-04-03T17:58:11.384Z,40.35
2019-04-03T18:00:42.423Z,40.67
2019-04-03T18:03:15.341Z,41.21
2019-04-03T18:05:46.369Z,41.60
2019-04-03T18:08:18.335Z,41.57
2019-04-03T18:10:50.384Z,41.72
2019-04-03T18:13:23.202Z,41.81
2019-04-03T18:15:54.589Z,42.17
2019-04-03T18:18:25.066Z,42.52
2019-04-03T18:20:55.771Z,42.94
2019-04-03T18:23:27.975Z,43.34
2019-04-03T18:25:59.727Z,43.81
2019-04-03T18:28:33.916Z,44.16
2019-04-03T18:31:07.438Z,44.67
2019-04-03T18:33:38.504Z,44.97
2019-04-03T18:36:10.444Z,45.46
2019-04-03T18:38:40.874Z,45.76
2019-04-03T18:41:11.443Z,45.82
2019-04-03T18:43:43.407Z,46.14
2019-04-03T18:46:19.171Z,46.35
2019-04-03T18:48:54.675Z,46.88
2019-04-03T18:51:22.572Z,46.71
2019-04-03T18:53:53.520Z,46.22
2019-04-03T18:56:26.571Z,45.89
2019-04-03T18:58:57.518Z,45.70
2019-04-03T19:01:32.352Z,45.55
2019-04-03T19:04:06.963Z,45.35
2019-04-03T19:06:41.006Z,45.54
2019-04-03T19:09:13.413Z,45.57
2019-04-03T19:11:45.835Z,45.79
2019-04-03T19:14:27.159Z,45.86
2019-04-03T19:16:55.250Z,46.02
2019-04-03T19:19:25.850Z,46.33
2019-04-03T19:21:56.703Z,46.61
2019-04-03T19:24:29.674Z,46.68
2019-04-03T19:27:02.206Z,46.98
2019-04-03T19:29:35.824Z,47.09
2019-04-03T19:32:11.826Z,47.47
2019-04-03T19:34:42.517Z,47.76
2019-04-03T19:37:14.653Z,48.13
2019-04-03T19:39:45.714Z,48.50
2019-04-03T19:42:16.346Z,48.58
2019-04-03T19:44:47.216Z,49.12
2019-04-03T19:47:20.758Z,49.36
2019-04-03T19:49:51.918Z,49.21
2019-04-03T19:52:23.965Z,49.55
2019-04-03T19:54:55.016Z,49.71
2019-04-03T19:57:27.467Z,49.83
2019-04-03T20:00:01.027Z,50.06
2019-04-03T20:02:33.220Z,50.20
2019-04-03T20:05:03.909Z,50.34
2019-04-03T20:07:35.215Z,50.34
2019-04-03T20:10:08.664Z,50.85
2019-04-03T20:12:41.985Z,50.75
2019-04-03T20:15:17.173Z,50.98
2019-04-03T20:17:48.856Z,50.94
2019-04-03T20:20:19.998Z,51.19
2019-04-03T20:22:53.003Z,51.29
2019-04-03T20:25:24.327Z,51.66
2019-04-03T20:27:57.089Z,51.96
2019-04-03T20:30:28.014Z,52.06
2019-04-03T20:33:01.262Z,52.36
2019-04-03T20:35:32.049Z,52.92
2019-04-03T20:38:03.044Z,53.31
2019-04-03T20:40:34.516Z,53.85
2019-04-03T20:43:07.102Z,54.52
2019-04-03T20:45:38.026Z,55.58
2019-04-03T20:48:11.036Z,56.04
2019-04-03T20:50:44.084Z,56.42
2019-04-03T20:53:17.098Z,57.05
2019-04-03T20:55:48.007Z,57.56
2019-04-03T20:58:19.050Z,57.73
2019-04-03T21:01:05.671Z,58.00
2019-04-03T21:03:23.072Z,58.19
2019-04-03T21:05:54.029Z,58.08
2019-04-03T21:08:26.708Z,58.07
2019-04-03T21:10:58.079Z,58.31
2019-04-03T21:13:29.181Z,58.61
2019-04-03T21:16:02.201Z,58.71
2019-04-03T21:18:33.281Z,59.18
2019-04-03T21:21:05.459Z,58.96
2019-04-03T21:23:37.634Z,59.00
2019-04-03T21:26:08.153Z,58.89
2019-04-03T21:28:40.964Z,58.75
2019-04-03T21:31:12.150Z,58.66
2019-04-03T21:33:45.394Z,58.51
2019-04-03T21:36:16.273Z,58.17
2019-04-03T21:38:47.315Z,58.37
2019-04-03T21:41:20.778Z,58.26
2019-04-03T21:43:55.434Z,58.23
2019-04-03T21:46:27.274Z,58.42
2019-04-03T21:48:58.243Z,58.71
2019-04-03T21:51:28.998Z,59.16
2019-04-03T21:53:59.393Z,59.45
2019-04-03T21:56:32.693Z,59.27
2019-04-03T21:59:07.032Z,59.64
2019-04-03T22:01:38.305Z,60.04
2019-04-03T22:04:10.675Z,60.38
2019-04-03T22:06:42.657Z,60.61
2019-04-03T22:09:14.439Z,60.64
2019-04-03T22:11:46.442Z,60.83
2019-04-03T22:14:17.415Z,60.67
2019-04-03T22:16:50.881Z,60.72
2019-04-03T22:19:22.515Z,61.01
2019-04-03T22:21:53.528Z,61.08
2019-04-03T22:24:24.435Z,61.08
2019-04-03T22:26:56.441Z,60.95
2019-04-03T22:29:28.402Z,61.10
2019-04-03T22:31:59.645Z,61.24
2019-04-03T22:34:32.534Z,61.25
2019-04-03T22:37:05.558Z,61.63
2019-04-03T22:39:39.135Z,61.80
2019-04-03T22:42:14.716Z,62.00
2019-04-03T22:44:47.590Z,61.96
2019-04-03T22:47:19.637Z,62.02
2019-04-03T22:49:50.451Z,62.44
2019-04-03T22:52:22.629Z,62.77
2019-04-03T22:54:54.621Z,62.58
2019-04-03T22:57:25.553Z,62.49
2019-04-03T22:59:58.629Z,62.70
2019-04-03T23:02:31.880Z,63.25
2019-04-03T23:05:05.864Z,63.38
2019-04-03T23:07:38.664Z,63.52
2019-04-03T23:10:09.637Z,63.72
2019-04-03T23:12:40.668Z,63.92
2019-04-03T23:15:13.547Z,63.94
2019-04-03T23:17:46.806Z,63.70
2019-04-03T23:20:20.067Z,63.58
2019-04-03T23:22:51.784Z,63.30
2019-04-03T23:25:22.913Z,63.53
2019-04-03T23:27:55.749Z,63.65
2019-04-03T23:30:28.712Z,63.81
2019-04-03T23:33:01.691Z,63.78
2019-04-03T23:35:34.753Z,63.65
2019-04-03T23:38:09.478Z,63.80
2019-04-03T23:40:40.826Z,64.01
2019-04-03T23:43:13.879Z,64.52
2019-04-03T23:45:46.708Z,64.74
2019-04-03T23:48:18.485Z,64.57
2019-04-03T23:50:52.388Z,64.27
2019-04-03T23:53:22.861Z,64.65
2019-04-03T23:55:53.903Z,65.18
2019-04-03T23:58:25.868Z,65.43
